Time;durP1;ratioP1;P1;durP2;ratioP2;P2;SDS_P1;SDS_P2;PMS_P1;PMS_P2;Temp;Humidity;BMP_temperature;BMP_pressure;BME280_temperature;BME280_humidity;BME280_pressure;Samples;Min_cycle;Max_cycle;Signal;HPM_P1;HPM_P2
2023/01/11 00:01:02;;;;;;;4.80;1.05;;;;;;;11.03;100.00;100468.44;4948607;28;20110;-76
2023/01/11 00:03:29;;;;;;;1.52;1.08;;;;;;;10.95;100.00;100468.22;4956023;28;20540;-76
2023/01/11 00:05:56;;;;;;;3.25;1.55;;;;;;;10.95;100.00;100443.59;4957821;28;20035;-76
2023/01/11 00:08:23;;;;;;;1.90;1.38;;;;;;;11.03;100.00;100441.94;4933691;29;20045;-77
2023/01/11 00:10:49;;;;;;;3.00;1.17;;;;;;;11.09;100.00;100445.13;4923603;29;20127;-77
2023/01/11 00:13:16;;;;;;;1.63;0.98;;;;;;;11.15;100.00;100444.56;4944653;29;20102;-77
2023/01/11 00:15:41;;;;;;;4.93;1.20;;;;;;;10.95;100.00;100440.84;4945550;29;20507;-76
2023/01/11 00:18:07;;;;;;;2.58;1.42;;;;;;;11.07;100.00;100447.09;4943462;28;20032;-77
2023/01/11 00:20:34;;;;;;;3.35;1.10;;;;;;;11.02;100.00;100442.06;4938816;28;20485;-76
2023/01/11 00:22:59;;;;;;;4.22;1.30;;;;;;;11.01;100.00;100446.66;4954485;29;20067;-76
2023/01/11 00:25:26;;;;;;;1.33;0.60;;;;;;;10.88;100.00;100434.19;4936591;28;20387;-77
2023/01/11 00:27:52;;;;;;;1.25;0.93;;;;;;;11.03;100.00;100424.59;4911658;29;20022;-77
2023/01/11 00:30:18;;;;;;;1.92;1.00;;;;;;;11.06;100.00;100431.69;4939829;28;20036;-77
2023/01/11 00:32:44;;;;;;;2.22;0.73;;;;;;;11.10;100.00;100434.03;4938237;29;20109;-77
2023/01/11 00:35:09;;;;;;;2.40;1.00;;;;;;;11.10;100.00;100436.78;4957201;28;20355;-77
2023/01/11 00:37:35;;;;;;;3.25;0.77;;;;;;;11.21;100.00;100433.06;4939939;28;20052;-76
2023/01/11 00:40:00;;;;;;;1.23;1.00;;;;;;;11.18;100.00;100425.09;4920847;29;20044;-76
2023/01/11 00:47:56;;;;;;;4.80;1.10;;;;;;;11.17;100.00;100415.19;4956521;28;20485;-78
2023/01/11 00:50:27;;;;;;;1.25;0.85;;;;;;;11.33;100.00;100420.13;4955695;29;20035;-77
2023/01/11 00:52:52;;;;;;;6.22;1.20;;;;;;;11.25;100.00;100398.03;4929169;28;20398;-77
2023/01/11 00:55:18;;;;;;;5.85;1.45;;;;;;;11.20;100.00;100402.06;4940855;28;20039;-77
2023/01/11 00:57:43;;;;;;;3.13;1.00;;;;;;;11.29;100.00;100408.59;4968843;28;20042;-77
2023/01/11 01:00:09;;;;;;;3.95;1.38;;;;;;;11.40;100.00;100394.78;4954580;28;20039;-77
2023/01/11 01:02:35;;;;;;;5.68;0.98;;;;;;;11.43;100.00;100393.66;4953852;29;20531;-76
2023/01/11 01:05:00;;;;;;;4.57;1.15;;;;;;;11.21;100.00;100398.31;4955217;28;20031;-77
2023/01/11 01:07:25;;;;;;;2.28;1.20;;;;;;;11.20;100.00;100390.25;4954512;28;20038;-76
2023/01/11 01:09:51;;;;;;;5.00;1.30;;;;;;;11.35;100.00;100391.59;4944064;29;20052;-77
2023/01/11 01:15:00;;;;;;;2.67;1.10;;;;;;;11.19;100.00;100397.56;4920236;29;20039;-77
2023/01/11 01:17:26;;;;;;;2.38;1.27;;;;;;;11.16;100.00;100402.47;4918411;29;20050;-76
2023/01/11 01:19:51;;;;;;;5.97;1.17;;;;;;;11.07;100.00;100400.53;4917218;29;20091;-78
2023/01/11 01:22:17;;;;;;;3.20;1.55;;;;;;;11.11;100.00;100394.66;4918639;29;20094;-77
2023/01/11 01:24:42;;;;;;;5.53;1.73;;;;;;;10.91;100.00;100392.81;4932749;29;20204;-78
2023/01/11 01:27:08;;;;;;;3.63;2.00;;;;;;;10.78;100.00;100393.88;4918874;29;20383;-78
2023/01/11 01:29:33;;;;;;;5.45;1.45;;;;;;;10.76;100.00;100393.16;4913941;29;20074;-77
2023/01/11 01:31:58;;;;;;;4.38;1.63;;;;;;;10.83;100.00;100404.44;4944404;29;20063;-77
2023/01/11 01:34:24;;;;;;;4.03;1.63;;;;;;;10.79;100.00;100394.75;4934933;29;20082;-77
2023/01/11 01:36:49;;;;;;;2.33;1.58;;;;;;;10.80;100.00;100408.31;4933101;29;20043;-77
2023/01/11 01:39:15;;;;;;;3.30;1.63;;;;;;;10.83;100.00;100404.44;4933735;29;20511;-77
2023/01/11 01:41:40;;;;;;;3.40;1.75;;;;;;;10.74;100.00;100397.03;4935955;29;20051;-76
2023/01/11 01:44:44;;;;;;;4.80;1.85;;;;;;;10.80;100.00;100400.09;4940460;29;20479;-77
2023/01/11 01:47:10;;;;;;;3.47;1.52;;;;;;;10.81;100.00;100398.25;4924484;29;20035;-77
2023/01/11 01:49:36;;;;;;;3.45;1.58;;;;;;;10.74;100.00;100399.75;4935430;29;20051;-77
2023/01/11 01:52:02;;;;;;;3.45;1.33;;;;;;;10.75;100.00;100398.78;4943676;28;20395;-77
2023/01/11 01:54:32;;;;;;;3.85;1.40;;;;;;;10.69;100.00;100393.81;4958386;29;20058;-77
2023/01/11 01:57:04;;;;;;;5.88;2.20;;;;;;;10.73;100.00;100385.22;4925848;29;20027;-77
2023/01/11 01:59:32;;;;;;;6.97;1.90;;;;;;;10.74;100.00;100392.44;4938233;29;20538;-77
2023/01/11 02:01:58;;;;;;;4.38;1.58;;;;;;;10.65;100.00;100388.63;4942200;29;20059;-77
2023/01/11 02:04:25;;;;;;;3.42;2.10;;;;;;;10.67;100.00;100391.22;4941695;28;20040;-77
2023/01/11 02:06:57;;;;;;;4.05;2.03;;;;;;;10.71;100.00;100389.97;4938674;29;20035;-77
2023/01/11 02:09:38;;;;;;;2.55;1.70;;;;;;;10.75;100.00;100387.81;4939929;29;20479;-77
2023/01/11 02:12:06;;;;;;;2.35;2.00;;;;;;;10.78;100.00;100384.81;4951585;28;20819;-77
2023/01/11 02:14:34;;;;;;;5.38;2.10;;;;;;;10.87;100.00;100391.34;4949546;29;20047;-77
2023/01/11 02:17:00;;;;;;;5.80;2.08;;;;;;;10.85;100.00;100395.09;4936965;28;20039;-76
2023/01/11 02:19:28;;;;;;;2.75;2.20;;;;;;;10.83;100.00;100396.22;4934592;29;20052;-78
2023/01/11 02:22:33;;;;;;;4.05;2.03;;;;;;;10.93;100.00;100391.66;4937492;29;20032;-77
2023/01/11 02:24:59;;;;;;;4.47;2.13;;;;;;;10.96;100.00;100388.66;4930926;29;20046;-77
2023/01/11 02:28:02;;;;;;;2.83;1.75;;;;;;;10.97;100.00;100390.41;4953879;29;20047;-76
2023/01/11 02:30:54;;;;;;;4.68;2.08;;;;;;;10.98;100.00;100386.66;4932103;29;20329;-76
2023/01/11 02:33:41;;;;;;;4.55;2.03;;;;;;;11.13;100.00;100383.56;4940769;29;20036;-76
2023/01/11 02:36:16;;;;;;;3.17;2.30;;;;;;;11.15;100.00;100381.53;4942172;29;20040;-76
2023/01/11 02:38:50;;;;;;;3.15;1.65;;;;;;;11.18;100.00;100373.94;4940061;29;20044;-76
2023/01/11 02:45:00;;;;;;;2.80;2.00;;;;;;;11.04;100.00;100380.63;4934102;29;20043;-76
2023/01/11 02:47:22;;;;;;;4.95;1.92;;;;;;;11.24;100.00;100386.22;4938556;29;20039;-76
2023/01/11 02:49:59;;;;;;;2.67;1.85;;;;;;;11.16;100.00;100369.59;4936057;29;20418;-76
2023/01/11 02:52:38;;;;;;;4.80;2.03;;;;;;;11.26;100.00;100381.44;4934478;29;20110;-76
2023/01/11 02:55:07;;;;;;;5.00;2.15;;;;;;;11.30;100.00;100377.44;4948972;28;20465;-76
2023/01/11 02:57:34;;;;;;;2.58;1.70;;;;;;;11.26;100.00;100362.25;4939009;29;20123;-76
2023/01/11 03:00:00;;;;;;;8.70;2.10;;;;;;;11.31;100.00;100373.69;4923626;28;20051;-76
2023/01/11 03:02:26;;;;;;;2.22;1.98;;;;;;;11.36;100.00;100368.66;4964521;28;20472;-76
2023/01/11 03:04:52;;;;;;;3.40;1.85;;;;;;;11.43;100.00;100366.25;4954251;29;20135;-76
2023/01/11 03:07:48;;;;;;;3.97;2.00;;;;;;;11.40;100.00;100352.81;4920571;29;20126;-76
2023/01/11 03:10:57;;;;;;;3.80;1.92;;;;;;;11.51;100.00;100357.28;4938154;29;20039;-76
2023/01/11 03:13:59;;;;;;;6.45;1.65;;;;;;;11.57;100.00;100352.13;4955970;29;20570;-76
2023/01/11 03:16:26;;;;;;;5.15;1.35;;;;;;;11.59;100.00;100352.88;4938943;29;20040;-76
2023/01/11 03:19:05;;;;;;;2.30;1.80;;;;;;;11.59;100.00;100358.34;4935488;29;20111;-76
2023/01/11 03:21:42;;;;;;;5.63;2.70;;;;;;;11.53;100.00;100349.81;4918946;29;20506;-76
2023/01/11 03:24:29;;;;;;;3.15;1.60;;;;;;;11.62;100.00;100339.88;4970968;28;20090;-76
2023/01/11 03:26:55;;;;;;;2.17;1.75;;;;;;;11.67;100.00;100340.31;4933453;29;20147;-76
2023/01/11 03:29:37;;;;;;;4.90;1.88;;;;;;;11.66;100.00;100330.34;4945376;29;20129;-76
2023/01/11 03:32:05;;;;;;;4.07;1.63;;;;;;;11.67;100.00;100340.31;4952712;29;20039;-76
2023/01/11 03:34:50;;;;;;;4.25;1.52;;;;;;;11.66;100.00;100335.81;4933547;29;20111;-76
2023/01/11 03:37:30;;;;;;;5.45;1.33;;;;;;;11.56;100.00;100335.84;4941072;29;20036;-76
2023/01/11 03:40:06;;;;;;;2.33;2.03;;;;;;;11.66;100.00;100338.56;4963773;28;20043;-76
2023/01/11 03:42:34;;;;;;;5.45;1.55;;;;;;;11.63;100.00;100338.88;4940359;28;20122;-76
2023/01/11 03:45:01;;;;;;;1.50;1.40;;;;;;;11.70;100.00;100335.41;4936101;29;20134;-76
2023/01/11 03:47:29;;;;;;;1.75;1.27;;;;;;;11.84;100.00;100334.13;4923327;29;20093;-76
2023/01/11 03:50:03;;;;;;;2.38;1.40;;;;;;;11.88;100.00;100343.81;4918856;29;20040;-76
2023/01/11 03:52:36;;;;;;;3.92;1.50;;;;;;;11.93;100.00;100346.16;4920048;29;20027;-76
2023/01/11 03:55:04;;;;;;;1.55;1.42;;;;;;;11.97;100.00;100341.25;4918169;29;20042;-76
2023/01/11 03:57:41;;;;;;;4.38;1.77;;;;;;;11.93;100.00;100341.53;4925058;29;20062;-76
2023/01/11 04:00:07;;;;;;;5.32;1.50;;;;;;;11.92;100.00;100336.19;4937082;29;20039;-76
2023/01/11 04:02:38;;;;;;;3.72;1.67;;;;;;;11.83;100.00;100334.28;4938633;29;20118;-76
2023/01/11 04:05:04;;;;;;;1.88;1.50;;;;;;;11.88;100.00;100329.22;4950407;28;20081;-76
2023/01/11 04:07:30;;;;;;;2.72;1.50;;;;;;;11.92;100.00;100326.09;4923652;29;20095;-77
2023/01/11 04:09:57;;;;;;;2.22;1.75;;;;;;;11.88;100.00;100329.22;4943633;29;20055;-75
2023/01/11 04:12:23;;;;;;;7.53;1.83;;;;;;;11.87;100.00;100338.47;4951839;29;20518;-76
2023/01/11 04:14:48;;;;;;;1.88;1.65;;;;;;;11.91;100.00;100329.84;4945362;28;20043;-76
2023/01/11 04:17:13;;;;;;;3.90;1.35;;;;;;;11.58;100.00;100331.94;4905183;29;20028;-77
2023/01/11 04:19:39;;;;;;;4.32;1.50;;;;;;;11.81;100.00;100333.56;4940073;29;20035;-76
2023/01/11 04:22:04;;;;;;;1.50;1.40;;;;;;;11.76;100.00;100329.34;4951415;29;20253;-76
2023/01/11 04:24:30;;;;;;;3.83;1.50;;;;;;;11.88;100.00;100341.06;4954576;29;20487;-76
2023/01/11 04:26:55;;;;;;;1.70;1.40;;;;;;;11.94;100.00;100337.78;4940383;29;20042;-76
2023/01/11 04:29:20;;;;;;;5.10;2.35;;;;;;;11.92;100.00;100349.91;4903648;29;20091;-76
2023/01/11 04:31:46;;;;;;;1.92;1.50;;;;;;;11.98;100.00;100356.72;4921461;29;20575;-77
2023/01/11 04:34:11;;;;;;;1.67;1.58;;;;;;;11.93;100.00;100360.72;4940951;28;20044;-77
2023/01/11 04:36:37;;;;;;;6.90;0.98;;;;;;;11.90;100.00;100352.78;4915807;29;20036;-76
2023/01/11 04:39:02;;;;;;;2.78;1.27;;;;;;;12.02;100.00;100345.31;4918270;29;20040;-76
2023/01/11 04:44:12;;;;;;;1.70;1.60;;;;;;;12.06;100.00;100344.00;4955802;29;20042;-77
2023/01/11 04:46:37;;;;;;;1.92;1.52;;;;;;;12.09;100.00;100359.31;4930995;28;20051;-77
2023/01/11 04:49:03;;;;;;;2.95;1.60;;;;;;;12.19;100.00;100364.81;4931327;29;20039;-76
2023/01/11 04:51:28;;;;;;;3.90;2.00;;;;;;;12.26;100.00;100366.81;4947048;29;20402;-76
2023/01/11 04:53:54;;;;;;;6.80;1.45;;;;;;;12.28;100.00;100361.19;4934373;29;20379;-76
2023/01/11 04:56:19;;;;;;;2.42;1.70;;;;;;;12.21;100.00;100360.91;4942160;29;20039;-76
2023/01/11 04:58:45;;;;;;;2.72;1.80;;;;;;;12.14;100.00;100351.53;4936768;29;20050;-76
2023/01/11 05:01:14;;;;;;;2.63;2.30;;;;;;;12.17;100.00;100364.97;4954530;29;20054;-76
2023/01/11 05:03:39;;;;;;;1.90;1.70;;;;;;;12.20;100.00;100352.81;4952715;29;20045;-76
2023/01/11 05:06:06;;;;;;;2.53;2.15;;;;;;;12.04;100.00;100359.75;4938087;29;20048;-76
2023/01/11 05:08:31;;;;;;;3.38;2.25;;;;;;;12.00;100.00;100346.44;4927938;29;20039;-77
2023/01/11 05:10:59;;;;;;;2.55;1.67;;;;;;;11.90;100.00;100346.41;4942505;29;20047;-76
2023/01/11 05:13:43;;;;;;;2.30;1.90;;;;;;;11.95;100.00;100358.72;4950933;28;20039;-76
2023/01/11 05:16:14;;;;;;;2.38;1.80;;;;;;;12.06;100.00;100354.13;4923127;29;20039;-76
2023/01/11 05:18:41;;;;;;;4.28;1.88;;;;;;;12.04;100.00;100342.41;4942050;29;20085;-76
2023/01/11 05:21:08;;;;;;;2.00;1.60;;;;;;;11.96;100.00;100345.88;4953986;28;20093;-76
2023/01/11 05:23:35;;;;;;;2.45;1.88;;;;;;;12.05;100.00;100342.28;4928623;28;20042;-76
2023/01/11 05:26:05;;;;;;;3.45;2.65;;;;;;;12.14;100.00;100357.88;4932122;28;20478;-77
2023/01/11 05:28:33;;;;;;;7.00;3.40;;;;;;;12.19;100.00;100360.19;4925703;29;20046;-76
2023/01/11 05:30:59;;;;;;;11.10;3.47;;;;;;;12.29;100.00;100380.25;4936295;29;20374;-76
2023/01/11 05:33:25;;;;;;;7.15;3.17;;;;;;;12.23;100.00;100389.09;4953907;28;20038;-76
2023/01/11 05:35:59;;;;;;;8.23;3.30;;;;;;;12.30;100.00;100383.88;4949180;28;20042;-76
2023/01/11 05:38:25;;;;;;;10.10;3.28;;;;;;;12.34;100.00;100396.28;4930354;29;20031;-77
2023/01/11 05:40:59;;;;;;;6.13;2.80;;;;;;;12.44;100.00;100410.03;4938687;29;20055;-76
2023/01/11 05:43:25;;;;;;;4.13;2.42;;;;;;;12.29;100.00;100402.22;4952868;28;20118;-75
2023/01/11 05:45:51;;;;;;;3.95;2.58;;;;;;;12.39;100.00;100399.47;4969290;28;20031;-76
2023/01/11 05:48:17;;;;;;;2.40;1.73;;;;;;;12.20;100.00;100393.97;4939765;28;20039;-75
2023/01/11 05:50:43;;;;;;;6.28;2.13;;;;;;;12.36;100.00;100393.41;4929420;29;20468;-76
2023/01/11 05:53:09;;;;;;;6.20;2.47;;;;;;;12.27;100.00;100392.41;4914136;29;20118;-76
2023/01/11 05:55:35;;;;;;;11.98;3.58;;;;;;;12.36;100.00;100393.41;4935105;29;20394;-75
2023/01/11 05:58:00;;;;;;;11.60;3.78;;;;;;;12.31;100.00;100393.84;4953271;28;20036;-76
2023/01/11 06:00:26;;;;;;;14.60;3.83;;;;;;;12.24;100.00;100388.06;4921630;28;20501;-76
2023/01/11 06:02:51;;;;;;;20.58;4.53;;;;;;;12.29;100.00;100387.63;4967111;28;20533;-76
2023/01/11 06:05:17;;;;;;;16.33;4.93;;;;;;;12.25;100.00;100391.69;4954016;28;20039;-76
2023/01/11 06:07:42;;;;;;;13.77;4.50;;;;;;;12.26;100.00;100382.44;4927984;28;20070;-76
2023/01/11 06:10:08;;;;;;;14.20;4.35;;;;;;;12.24;100.00;100384.47;4937523;28;20494;-76
2023/01/11 06:12:34;;;;;;;17.38;4.80;;;;;;;12.16;100.00;100381.56;4952065;29;20051;-76
2023/01/11 06:14:59;;;;;;;20.27;4.20;;;;;;;12.09;100.00;100386.75;4939172;29;20036;-76
2023/01/11 06:17:25;;;;;;;18.80;5.20;;;;;;;12.28;100.00;100392.25;4941955;29;20051;-76
2023/01/11 06:19:50;;;;;;;22.98;5.35;;;;;;;12.34;100.00;100403.69;4966943;28;20039;-76
2023/01/11 06:22:16;;;;;;;31.92;5.97;;;;;;;12.45;100.00;100398.91;4950577;28;20079;-76
2023/01/11 06:24:42;;;;;;;13.38;4.65;;;;;;;12.37;100.00;100393.25;4953330;28;20050;-76
2023/01/11 06:27:07;;;;;;;18.02;6.05;;;;;;;12.27;100.00;100389.66;4921733;28;20448;-76
2023/01/11 06:29:33;;;;;;;16.17;5.78;;;;;;;12.27;100.00;100397.91;4953006;28;20035;-76
2023/01/11 06:31:58;;;;;;;15.50;6.60;;;;;;;12.20;100.00;100407.69;4939294;28;20034;-76
2023/01/11 06:34:24;;;;;;;20.73;7.63;;;;;;;12.24;100.00;100411.91;4938467;29;20079;-76
2023/01/11 06:36:49;;;;;;;24.58;7.38;;;;;;;12.31;100.00;100408.44;4956316;29;20043;-76
2023/01/11 06:39:14;;;;;;;27.85;7.53;;;;;;;12.27;100.00;100419.84;4941015;29;20095;-76
2023/01/11 06:41:40;;;;;;;27.38;7.68;;;;;;;12.31;100.00;100433.16;4943708;28;20031;-77
2023/01/11 06:44:05;;;;;;;29.13;8.82;;;;;;;12.39;100.00;100450.78;4946494;29;20058;-77
2023/01/11 06:46:31;;;;;;;20.13;6.07;;;;;;;12.07;100.00;100444.53;4923705;29;20039;-76
2023/01/11 06:48:56;;;;;;;31.20;8.02;;;;;;;12.13;100.00;100467.78;4935123;29;20034;-76
2023/01/11 06:51:21;;;;;;;9.45;4.72;;;;;;;12.06;100.00;100462.00;4934127;28;20058;-76
2023/01/11 06:53:47;;;;;;;19.15;6.13;;;;;;;12.16;100.00;100456.53;4943656;29;20482;-77
2023/01/11 06:56:16;;;;;;;29.00;5.75;;;;;;;11.91;100.00;100452.41;4942731;28;20497;-76
2023/01/11 06:58:41;;;;;;;25.00;5.43;;;;;;;11.99;100.00;100476.44;4959813;28;20032;-77
2023/01/11 07:01:07;;;;;;;20.95;5.32;;;;;;;11.99;100.00;100463.56;4929181;28;20062;-76
2023/01/11 07:03:32;;;;;;;23.98;5.18;;;;;;;11.94;100.00;100477.72;4932094;29;20067;-76
2023/01/11 07:05:58;;;;;;;19.55;4.55;;;;;;;11.98;100.00;100481.03;4938386;29;20482;-76
2023/01/11 07:08:24;;;;;;;21.67;3.75;;;;;;;11.95;100.00;100475.81;4926439;28;20434;-76
2023/01/11 07:10:50;;;;;;;30.92;3.78;;;;;;;11.90;100.00;100478.09;4948884;28;20086;-76
2023/01/11 07:13:16;;;;;;;21.67;4.05;;;;;;;11.96;100.00;100485.81;4941048;29;20047;-77
2023/01/11 07:15:48;;;;;;;32.67;3.38;;;;;;;11.80;100.00;100500.00;4930009;29;20452;-76
2023/01/11 07:18:14;;;;;;;21.00;3.25;;;;;;;11.84;100.00;100478.63;4954443;28;20038;-78
2023/01/11 07:20:40;;;;;;;30.15;3.70;;;;;;;11.75;100.00;100505.03;4933055;28;20042;-75
2023/01/11 07:23:09;;;;;;;25.92;3.65;;;;;;;11.87;100.00;100495.72;4926259;29;20035;-75
2023/01/11 07:25:35;;;;;;;20.00;3.42;;;;;;;11.99;100.00;100499.25;4934202;28;20489;-76
2023/01/11 07:28:03;;;;;;;25.73;4.57;;;;;;;11.79;100.00;100517.47;4939034;29;20086;-76
2023/01/11 07:30:31;;;;;;;21.95;4.00;;;;;;;11.81;100.00;100533.81;4956530;28;20040;-74
2023/01/11 07:32:57;;;;;;;22.52;4.25;;;;;;;11.83;100.00;100540.88;4952652;28;20049;-76
2023/01/11 07:35:23;;;;;;;28.13;5.03;;;;;;;11.75;100.00;100537.94;4922319;29;20048;-74
2023/01/11 07:37:48;;;;;;;36.10;7.47;;;;;;;11.84;100.00;100530.75;4953830;29;20036;-75
2023/01/11 07:40:16;;;;;;;34.35;4.68;;;;;;;11.61;100.00;100524.59;4929031;29;20063;-74
2023/01/11 07:43:17;;;;;;;35.58;5.97;;;;;;;11.67;100.00;100522.16;4960081;29;20036;-75
2023/01/11 07:45:48;;;;;;;28.92;6.30;;;;;;;11.67;100.00;100552.34;4943238;29;20586;-74
2023/01/11 07:48:19;;;;;;;38.72;5.32;;;;;;;11.66;100.00;100552.47;4948947;28;20035;-75
2023/01/11 07:50:47;;;;;;;44.63;4.80;;;;;;;11.44;100.00;100553.50;4940437;29;20034;-78
2023/01/11 07:53:13;;;;;;;43.50;6.55;;;;;;;11.47;100.00;100558.72;4907481;29;20047;-75
2023/01/11 07:55:40;;;;;;;38.03;5.85;;;;;;;11.59;100.00;100554.88;4958447;29;20039;-76
2023/01/11 07:58:06;;;;;;;46.78;5.10;;;;;;;11.69;100.00;100574.13;4965171;28;20422;-77
2023/01/11 08:00:32;;;;;;;37.78;5.15;;;;;;;11.51;100.00;100572.03;4944794;29;20512;-75
2023/01/11 08:02:59;;;;;;;36.78;5.13;;;;;;;11.56;100.00;100569.75;4940155;29;20063;-75
2023/01/11 08:05:25;;;;;;;32.28;4.40;;;;;;;11.51;100.00;100572.03;4956640;29;20059;-75
2023/01/11 08:07:50;;;;;;;32.50;4.75;;;;;;;11.38;100.00;100580.47;4939800;29;20508;-75
2023/01/11 08:10:16;;;;;;;35.88;4.78;;;;;;;11.34;100.00;100600.91;4940179;28;20188;-75
2023/01/11 08:15:32;;;;;;;58.13;5.70;;;;;;;11.38;100.00;100607.00;4944756;28;20038;-75
2023/01/11 08:17:59;;;;;;;42.60;4.78;;;;;;;11.34;100.00;100600.03;4964837;28;20046;-75
2023/01/11 08:20:25;;;;;;;38.80;3.05;;;;;;;11.31;100.00;100605.78;4939361;29;20039;-75
2023/01/11 08:22:52;;;;;;;40.92;4.22;;;;;;;11.17;100.00;100607.00;4939572;29;20490;-74
2023/01/11 08:25:17;;;;;;;35.88;3.85;;;;;;;11.20;100.00;100626.78;4955704;29;20035;-75
2023/01/11 08:27:43;;;;;;;52.80;4.20;;;;;;;11.16;100.00;100635.38;4971018;28;20070;-75
2023/01/11 08:30:10;;;;;;;37.97;3.97;;;;;;;11.31;100.00;100646.91;4938300;29;20474;-75
2023/01/11 08:32:35;;;;;;;46.13;5.05;;;;;;;11.19;100.00;100652.44;4956466;29;20070;-75
2023/01/11 08:35:01;;;;;;;33.83;3.10;;;;;;;11.13;100.00;100649.34;4956161;29;20050;-75
2023/01/11 08:37:26;;;;;;;43.20;4.03;;;;;;;10.95;100.00;100654.50;4956010;29;20405;-75
2023/01/11 08:39:52;;;;;;;40.85;4.28;;;;;;;11.12;100.00;100666.81;4969386;28;20046;-75
2023/01/11 08:42:17;;;;;;;47.80;3.78;;;;;;;11.03;100.00;100672.06;4958101;28;20043;-75
2023/01/11 08:44:43;;;;;;;54.80;3.47;;;;;;;11.02;100.00;100664.81;4942410;28;20524;-75
2023/01/11 08:47:08;;;;;;;41.33;4.07;;;;;;;11.09;100.00;100686.25;4949240;29;20127;-75
2023/01/11 08:49:34;;;;;;;49.85;4.45;;;;;;;11.21;100.00;100691.56;4938624;29;20130;-75
2023/01/11 08:51:59;;;;;;;41.30;3.85;;;;;;;11.25;100.00;100685.78;4938064;29;20040;-75
2023/01/11 08:54:24;;;;;;;29.00;4.05;;;;;;;11.00;100.00;100687.84;4933033;28;20035;-75
2023/01/11 08:56:50;;;;;;;35.85;3.85;;;;;;;11.12;100.00;100696.94;4975037;28;20544;-75
2023/01/11 08:59:15;;;;;;;44.15;4.72;;;;;;;11.03;100.00;100690.34;4974753;28;20057;-74
2023/01/11 09:01:41;;;;;;;35.03;4.13;;;;;;;11.17;100.00;100701.03;4975037;28;20046;-75
2023/01/11 09:04:06;;;;;;;41.88;4.80;;;;;;;11.31;100.00;100696.25;4957844;28;20077;-76
2023/01/11 09:06:32;;;;;;;32.55;4.18;;;;;;;11.08;100.00;100700.91;4974731;28;20074;-75
2023/01/11 09:08:57;;;;;;;38.47;3.65;;;;;;;10.73;100.00;100694.66;4957732;28;20509;-74
2023/01/11 09:14:06;;;;;;;36.20;3.10;;;;;;;10.92;100.00;100706.81;4966753;28;20042;-75
2023/01/11 09:16:32;;;;;;;38.38;4.32;;;;;;;10.92;100.00;100710.44;4974814;28;20113;-75
2023/01/11 09:18:57;;;;;;;31.33;3.40;;;;;;;10.95;100.00;100703.81;4968270;28;20046;-74
2023/01/11 09:21:23;;;;;;;34.60;3.92;;;;;;;10.85;100.00;100707.34;4969917;28;20043;-75
2023/01/11 09:23:48;;;;;;;37.65;4.38;;;;;;;10.76;100.00;100712.69;4967240;28;20042;-76
2023/01/11 09:26:14;;;;;;;33.30;2.90;;;;;;;10.75;100.00;100714.56;4957394;28;20034;-75
2023/01/11 09:28:40;;;;;;;37.83;3.42;;;;;;;10.76;100.00;100721.78;4941246;28;20022;-75
2023/01/11 09:31:06;;;;;;;33.35;3.15;;;;;;;10.68;100.00;100720.69;4974543;28;20165;-75
2023/01/11 09:33:33;;;;;;;28.73;3.13;;;;;;;10.62;100.00;100732.97;4963301;28;20437;-75
2023/01/11 09:36:01;;;;;;;28.42;2.97;;;;;;;10.76;100.00;100730.00;4950550;28;20070;-74
2023/01/11 09:38:29;;;;;;;37.53;3.42;;;;;;;10.75;100.00;100739.19;4956844;28;20058;-75
2023/01/11 09:41:25;;;;;;;26.33;4.18;;;;;;;10.81;100.00;100744.19;4976371;28;20077;-74
2023/01/11 09:44:13;;;;;;;32.55;3.10;;;;;;;10.83;100.00;100746.78;4916650;29;20048;-74
2023/01/11 09:46:41;;;;;;;34.22;3.63;;;;;;;10.77;100.00;100750.91;4953799;28;20065;-75
2023/01/11 09:49:15;;;;;;;30.63;3.80;;;;;;;10.93;100.00;100760.59;4972912;28;20026;-75
2023/01/11 09:51:42;;;;;;;34.55;3.97;;;;;;;10.77;100.00;100753.66;4974606;28;20038;-75
2023/01/11 09:54:14;;;;;;;35.08;3.58;;;;;;;10.88;100.00;100760.13;4973513;28;20496;-75
2023/01/11 09:56:50;;;;;;;20.95;2.97;;;;;;;10.74;100.00;100763.97;4974522;28;20474;-75
2023/01/11 09:59:33;;;;;;;40.67;3.92;;;;;;;10.90;100.00;100767.19;4955334;28;20035;-74
2023/01/11 10:02:10;;;;;;;29.00;3.05;;;;;;;10.79;100.00;100759.88;4955329;29;20390;-74
2023/01/11 10:04:58;;;;;;;38.30;2.97;;;;;;;10.74;100.00;100758.50;4956167;28;20339;-75
2023/01/11 10:08:12;;;;;;;43.17;4.45;;;;;;;10.93;100.00;100766.09;4941926;29;20058;-75
2023/01/11 10:10:49;;;;;;;41.25;3.67;;;;;;;10.87;100.00;100775.69;4954332;29;20043;-74
2023/01/11 10:13:15;;;;;;;33.42;2.55;;;;;;;10.88;100.00;100773.81;4957198;28;20057;-75
2023/01/11 10:16:09;;;;;;;30.52;2.58;;;;;;;10.85;100.00;100775.81;4953832;28;20030;-74
2023/01/11 10:19:00;;;;;;;32.80;3.17;;;;;;;10.94;100.00;100789.75;4977629;28;20043;-74
2023/01/11 10:21:30;;;;;;;29.33;2.80;;;;;;;10.92;100.00;100792.63;4977829;28;20502;-74
2023/01/11 10:24:18;;;;;;;32.70;3.22;;;;;;;11.17;100.00;100790.59;4959320;28;20105;-75
2023/01/11 10:26:44;;;;;;;29.00;3.60;;;;;;;11.44;100.00;100786.53;4941253;29;20039;-75
2023/01/11 10:32:08;;;;;;;35.38;4.07;;;;;;;11.27;100.00;100793.44;4941619;29;20051;-74
2023/01/11 10:34:59;;;;;;;20.55;2.15;;;;;;;11.25;100.00;100796.31;4959271;28;20034;-75
2023/01/11 10:40:37;;;;;;;30.85;3.15;;;;;;;11.49;100.00;100792.50;4939386;29;20414;-74
2023/01/11 10:43:16;;;;;;;24.13;3.58;;;;;;;11.54;100.00;100774.69;4953891;29;20113;-74
2023/01/11 10:45:49;;;;;;;23.55;2.67;;;;;;;11.69;100.00;100778.00;4924969;29;20504;-74
2023/01/11 10:48:27;;;;;;;27.20;3.22;;;;;;;11.63;100.00;100778.50;4958147;29;20434;-76
2023/01/11 10:51:11;;;;;;;37.15;2.83;;;;;;;11.94;100.00;100784.16;4940803;29;20122;-75
2023/01/11 10:53:58;;;;;;;26.23;3.53;;;;;;;11.89;100.00;100779.03;4937268;29;20470;-74
2023/01/11 10:56:49;;;;;;;28.17;3.53;;;;;;;11.91;100.00;100782.53;4956194;29;20042;-75
2023/01/11 10:59:43;;;;;;;28.80;3.60;;;;;;;11.89;100.00;100789.13;4957889;29;20035;-75
2023/01/11 11:02:42;;;;;;;24.45;2.63;;;;;;;11.65;100.00;100787.47;4940336;29;20031;-75
2023/01/11 11:05:16;;;;;;;30.60;4.07;;;;;;;11.57;100.00;100779.88;4940412;29;20039;-74
2023/01/11 11:08:23;;;;;;;23.63;4.30;;;;;;;11.87;100.00;100786.50;4957795;29;20110;-75
2023/01/11 11:11:25;;;;;;;28.08;4.75;;;;;;;11.87;100.00;100786.50;4929071;29;20098;-75
2023/01/11 11:14:06;;;;;;;38.38;5.28;;;;;;;11.74;100.00;100783.94;4940786;29;20054;-74
2023/01/11 11:16:50;;;;;;;28.25;4.72;;;;;;;11.72;100.00;100782.31;4959416;28;20478;-75
2023/01/11 11:19:20;;;;;;;37.83;6.43;;;;;;;11.79;100.00;100778.06;4940709;29;20097;-74
2023/01/11 11:21:48;;;;;;;28.65;5.35;;;;;;;12.09;100.00;100784.69;4958155;29;20387;-75
2023/01/11 11:24:22;;;;;;;46.30;5.55;;;;;;;12.19;100.00;100791.13;4957700;29;20501;-75
2023/01/11 11:26:58;;;;;;;24.83;3.63;;;;;;;11.92;100.00;100792.50;4966417;28;20043;-75
2023/01/11 11:29:29;;;;;;;40.75;6.38;;;;;;;12.32;100.00;100807.38;4960516;28;20054;-75
2023/01/11 11:31:58;;;;;;;21.80;3.38;;;;;;;11.98;100.00;100801.22;4944200;28;20035;-76
2023/01/11 11:34:26;;;;;;;38.60;5.10;;;;;;;11.82;100.00;100798.88;4976149;28;20371;-75
2023/01/11 11:36:53;;;;;;;20.83;4.28;;;;;;;11.94;100.00;100809.69;4952392;28;20050;-75
2023/01/11 11:39:27;;;;;;;31.88;4.13;;;;;;;11.90;100.00;100808.22;4952994;29;20028;-75
2023/01/11 11:41:55;;;;;;;26.83;4.20;;;;;;;11.96;100.00;100793.09;4938819;29;20146;-75
2023/01/11 11:44:26;;;;;;;24.17;3.55;;;;;;;11.84;100.00;100796.84;4950714;28;20113;-75
2023/01/11 11:47:04;;;;;;;29.90;4.57;;;;;;;11.93;100.00;100796.97;4969735;28;20110;-74
2023/01/11 11:49:31;;;;;;;29.48;4.22;;;;;;;11.82;100.00;100794.25;4943276;28;20026;-75
2023/01/11 11:51:59;;;;;;;32.08;4.05;;;;;;;12.16;100.00;100796.88;4942347;29;20113;-75
2023/01/11 11:54:48;;;;;;;22.33;4.18;;;;;;;11.92;100.00;100802.59;4939941;29;20031;-75